sensor_id;sensor_type;location;lat;lon;timestamp;P1;durP1;ratioP1;P2;durP2;ratioP2
14167;SDS011;7163;50.626;12.922;2023-06-10T00:04:32;16.97;;;10.30;;
14167;SDS011;7163;50.626;12.922;2023-06-10T00:09:39;15.33;;;10.60;;
14167;SDS011;7163;50.626;12.922;2023-06-10T00:14:40;14.47;;;10.77;;
14167;SDS011;7163;50.626;12.922;2023-06-10T00:19:41;15.30;;;10.83;;
14167;SDS011;7163;50.626;12.922;2023-06-10T00:24:41;14.00;;;10.83;;
14167;SDS011;7163;50.626;12.922;2023-06-10T00:29:43;15.77;;;12.47;;
14167;SDS011;7163;50.626;12.922;2023-06-10T00:34:43;15.33;;;11.13;;
14167;SDS011;7163;50.626;12.922;2023-06-10T00:39:43;13.80;;;10.83;;
14167;SDS011;7163;50.626;12.922;2023-06-10T00:44:44;17.33;;;11.47;;
14167;SDS011;7163;50.626;12.922;2023-06-10T00:49:45;13.33;;;10.77;;
14167;SDS011;7163;50.626;12.922;2023-06-10T00:54:46;15.60;;;11.67;;
14167;SDS011;7163;50.626;12.922;2023-06-10T00:59:47;13.60;;;10.93;;
14167;SDS011;7163;50.626;12.922;2023-06-10T01:04:48;18.13;;;11.40;;
14167;SDS011;7163;50.626;12.922;2023-06-10T01:09:54;15.17;;;11.27;;
14167;SDS011;7163;50.626;12.922;2023-06-10T01:15:22;14.33;;;10.73;;
14167;SDS011;7163;50.626;12.922;2023-06-10T01:20:22;15.80;;;10.73;;
14167;SDS011;7163;50.626;12.922;2023-06-10T01:25:24;15.13;;;11.63;;
14167;SDS011;7163;50.626;12.922;2023-06-10T01:30:29;15.30;;;11.73;;
14167;SDS011;7163;50.626;12.922;2023-06-10T01:35:33;15.10;;;11.10;;
14167;SDS011;7163;50.626;12.922;2023-06-10T01:40:36;15.20;;;11.27;;
14167;SDS011;7163;50.626;12.922;2023-06-10T01:45:37;15.37;;;11.73;;
14167;SDS011;7163;50.626;12.922;2023-06-10T01:50:38;17.80;;;11.63;;
14167;SDS011;7163;50.626;12.922;2023-06-10T01:55:38;14.83;;;11.70;;
14167;SDS011;7163;50.626;12.922;2023-06-10T02:00:38;17.07;;;12.73;;
14167;SDS011;7163;50.626;12.922;2023-06-10T02:05:40;17.60;;;13.67;;
14167;SDS011;7163;50.626;12.922;2023-06-10T02:10:41;16.13;;;12.33;;
14167;SDS011;7163;50.626;12.922;2023-06-10T02:15:41;22.67;;;12.90;;
14167;SDS011;7163;50.626;12.922;2023-06-10T02:20:44;15.33;;;11.97;;
14167;SDS011;7163;50.626;12.922;2023-06-10T02:25:45;15.77;;;13.37;;
14167;SDS011;7163;50.626;12.922;2023-06-10T02:30:48;15.77;;;12.33;;
14167;SDS011;7163;50.626;12.922;2023-06-10T02:35:49;20.53;;;13.57;;
14167;SDS011;7163;50.626;12.922;2023-06-10T02:40:49;16.53;;;13.40;;
14167;SDS011;7163;50.626;12.922;2023-06-10T02:45:49;16.03;;;13.20;;
14167;SDS011;7163;50.626;12.922;2023-06-10T02:50:50;17.90;;;13.57;;
14167;SDS011;7163;50.626;12.922;2023-06-10T02:55:51;21.10;;;14.10;;
14167;SDS011;7163;50.626;12.922;2023-06-10T03:00:51;16.70;;;13.63;;
14167;SDS011;7163;50.626;12.922;2023-06-10T03:17:03;23.37;;;17.50;;
14167;SDS011;7163;50.626;12.922;2023-06-10T03:22:07;23.30;;;17.10;;
14167;SDS011;7163;50.626;12.922;2023-06-10T03:27:09;22.70;;;17.03;;
14167;SDS011;7163;50.626;12.922;2023-06-10T03:32:10;26.30;;;17.70;;
14167;SDS011;7163;50.626;12.922;2023-06-10T03:37:11;20.87;;;16.60;;
14167;SDS011;7163;50.626;12.922;2023-06-10T03:42:11;22.17;;;16.77;;
14167;SDS011;7163;50.626;12.922;2023-06-10T03:47:12;22.40;;;17.50;;
14167;SDS011;7163;50.626;12.922;2023-06-10T03:52:14;21.67;;;17.47;;
14167;SDS011;7163;50.626;12.922;2023-06-10T03:57:15;20.23;;;16.17;;
14167;SDS011;7163;50.626;12.922;2023-06-10T04:02:15;17.97;;;16.07;;
14167;SDS011;7163;50.626;12.922;2023-06-10T04:07:16;21.43;;;16.87;;
14167;SDS011;7163;50.626;12.922;2023-06-10T04:12:19;17.50;;;13.87;;
14167;SDS011;7163;50.626;12.922;2023-06-10T04:17:19;17.17;;;12.63;;
14167;SDS011;7163;50.626;12.922;2023-06-10T04:22:20;14.97;;;11.87;;
14167;SDS011;7163;50.626;12.922;2023-06-10T04:27:20;15.30;;;12.10;;
14167;SDS011;7163;50.626;12.922;2023-06-10T04:32:21;14.47;;;10.83;;
14167;SDS011;7163;50.626;12.922;2023-06-10T04:37:21;13.00;;;9.30;;
14167;SDS011;7163;50.626;12.922;2023-06-10T04:42:22;12.00;;;9.50;;
14167;SDS011;7163;50.626;12.922;2023-06-10T04:47:23;13.33;;;9.40;;
14167;SDS011;7163;50.626;12.922;2023-06-10T04:52:23;11.57;;;8.23;;
14167;SDS011;7163;50.626;12.922;2023-06-10T04:57:24;12.23;;;8.77;;
14167;SDS011;7163;50.626;12.922;2023-06-10T05:02:24;10.13;;;7.87;;
14167;SDS011;7163;50.626;12.922;2023-06-10T05:07:25;11.70;;;8.07;;
14167;SDS011;7163;50.626;12.922;2023-06-10T05:12:29;9.30;;;7.77;;
14167;SDS011;7163;50.626;12.922;2023-06-10T05:17:38;12.13;;;7.63;;
14167;SDS011;7163;50.626;12.922;2023-06-10T05:22:39;10.10;;;7.57;;
14167;SDS011;7163;50.626;12.922;2023-06-10T05:27:39;11.10;;;7.80;;
14167;SDS011;7163;50.626;12.922;2023-06-10T05:32:42;9.57;;;7.07;;
14167;SDS011;7163;50.626;12.922;2023-06-10T05:37:42;12.07;;;7.93;;
14167;SDS011;7163;50.626;12.922;2023-06-10T05:42:43;9.70;;;7.87;;
14167;SDS011;7163;50.626;12.922;2023-06-10T05:47:44;9.67;;;7.37;;
14167;SDS011;7163;50.626;12.922;2023-06-10T05:52:44;9.53;;;7.27;;
14167;SDS011;7163;50.626;12.922;2023-06-10T05:57:44;8.27;;;6.87;;
14167;SDS011;7163;50.626;12.922;2023-06-10T06:02:45;12.87;;;7.63;;
14167;SDS011;7163;50.626;12.922;2023-06-10T06:07:46;10.23;;;7.40;;
14167;SDS011;7163;50.626;12.922;2023-06-10T06:12:46;11.47;;;7.23;;
14167;SDS011;7163;50.626;12.922;2023-06-10T06:17:47;9.47;;;6.87;;
14167;SDS011;7163;50.626;12.922;2023-06-10T06:22:47;10.83;;;6.73;;
14167;SDS011;7163;50.626;12.922;2023-06-10T06:27:48;8.13;;;6.83;;
14167;SDS011;7163;50.626;12.922;2023-06-10T06:32:49;9.30;;;6.50;;
14167;SDS011;7163;50.626;12.922;2023-06-10T06:37:51;11.17;;;6.67;;
14167;SDS011;7163;50.626;12.922;2023-06-10T06:42:52;7.77;;;6.27;;
14167;SDS011;7163;50.626;12.922;2023-06-10T06:47:52;11.27;;;7.27;;
14167;SDS011;7163;50.626;12.922;2023-06-10T06:52:59;8.95;;;6.63;;
14167;SDS011;7163;50.626;12.922;2023-06-10T06:58:00;7.60;;;6.25;;
14167;SDS011;7163;50.626;12.922;2023-06-10T07:03:04;9.20;;;6.50;;
14167;SDS011;7163;50.626;12.922;2023-06-10T07:08:04;9.07;;;6.32;;
14167;SDS011;7163;50.626;12.922;2023-06-10T07:13:08;8.50;;;6.00;;
14167;SDS011;7163;50.626;12.922;2023-06-10T07:18:08;9.10;;;5.47;;
14167;SDS011;7163;50.626;12.922;2023-06-10T07:23:08;9.95;;;5.70;;
14167;SDS011;7163;50.626;12.922;2023-06-10T07:28:09;7.13;;;5.40;;
14167;SDS011;7163;50.626;12.922;2023-06-10T07:33:09;7.68;;;5.50;;
14167;SDS011;7163;50.626;12.922;2023-06-10T07:38:10;8.95;;;5.78;;
14167;SDS011;7163;50.626;12.922;2023-06-10T07:43:11;8.80;;;5.65;;
14167;SDS011;7163;50.626;12.922;2023-06-10T07:48:12;11.63;;;6.45;;
14167;SDS011;7163;50.626;12.922;2023-06-10T07:53:12;9.10;;;6.28;;
14167;SDS011;7163;50.626;12.922;2023-06-10T07:58:12;8.15;;;5.57;;
14167;SDS011;7163;50.626;12.922;2023-06-10T08:03:13;9.02;;;6.13;;
14167;SDS011;7163;50.626;12.922;2023-06-10T08:08:13;8.27;;;5.95;;
14167;SDS011;7163;50.626;12.922;2023-06-10T08:13:13;8.35;;;5.95;;
14167;SDS011;7163;50.626;12.922;2023-06-10T08:18:14;10.68;;;5.80;;
14167;SDS011;7163;50.626;12.922;2023-06-10T08:23:14;13.00;;;6.53;;
14167;SDS011;7163;50.626;12.922;2023-06-10T08:28:15;8.85;;;6.43;;
14167;SDS011;7163;50.626;12.922;2023-06-10T08:33:15;12.77;;;6.18;;
14167;SDS011;7163;50.626;12.922;2023-06-10T08:38:16;10.32;;;6.55;;
14167;SDS011;7163;50.626;12.922;2023-06-10T08:43:21;9.75;;;6.18;;
14167;SDS011;7163;50.626;12.922;2023-06-10T08:48:23;7.82;;;6.18;;
14167;SDS011;7163;50.626;12.922;2023-06-10T08:53:23;11.48;;;7.05;;
14167;SDS011;7163;50.626;12.922;2023-06-10T08:58:24;13.10;;;6.70;;
14167;SDS011;7163;50.626;12.922;2023-06-10T09:03:25;9.80;;;7.05;;
14167;SDS011;7163;50.626;12.922;2023-06-10T09:08:26;10.25;;;6.43;;
14167;SDS011;7163;50.626;12.922;2023-06-10T09:13:27;12.40;;;6.68;;
14167;SDS011;7163;50.626;12.922;2023-06-10T09:18:28;10.73;;;7.00;;
14167;SDS011;7163;50.626;12.922;2023-06-10T09:23:28;9.50;;;6.65;;
14167;SDS011;7163;50.626;12.922;2023-06-10T09:28:32;8.20;;;6.47;;
14167;SDS011;7163;50.626;12.922;2023-06-10T09:33:33;9.52;;;7.22;;
14167;SDS011;7163;50.626;12.922;2023-06-10T09:38:37;11.00;;;9.25;;
14167;SDS011;7163;50.626;12.922;2023-06-10T09:43:40;25.55;;;13.52;;
14167;SDS011;7163;50.626;12.922;2023-06-10T09:48:41;20.25;;;13.00;;
14167;SDS011;7163;50.626;12.922;2023-06-10T09:53:47;16.30;;;14.18;;
14167;SDS011;7163;50.626;12.922;2023-06-10T09:58:49;19.43;;;15.67;;
14167;SDS011;7163;50.626;12.922;2023-06-10T10:03:53;18.83;;;15.90;;
14167;SDS011;7163;50.626;12.922;2023-06-10T10:08:54;19.55;;;15.15;;
14167;SDS011;7163;50.626;12.922;2023-06-10T10:13:54;17.77;;;15.23;;
14167;SDS011;7163;50.626;12.922;2023-06-10T10:19:01;16.98;;;14.90;;
14167;SDS011;7163;50.626;12.922;2023-06-10T10:24:16;18.35;;;15.38;;
14167;SDS011;7163;50.626;12.922;2023-06-10T10:29:53;18.77;;;15.02;;
14167;SDS011;7163;50.626;12.922;2023-06-10T10:34:50;15.57;;;10.10;;
14167;SDS011;7163;50.626;12.922;2023-06-10T10:39:56;12.25;;;7.18;;
14167;SDS011;7163;50.626;12.922;2023-06-10T10:44:58;7.38;;;6.00;;
14167;SDS011;7163;50.626;12.922;2023-06-10T10:49:59;8.00;;;6.18;;
14167;SDS011;7163;50.626;12.922;2023-06-10T10:54:59;8.18;;;5.65;;
14167;SDS011;7163;50.626;12.922;2023-06-10T11:00:02;7.30;;;5.18;;
14167;SDS011;7163;50.626;12.922;2023-06-10T11:05:05;12.25;;;4.75;;
14167;SDS011;7163;50.626;12.922;2023-06-10T11:15:09;6.38;;;4.00;;
14167;SDS011;7163;50.626;12.922;2023-06-10T11:20:11;6.38;;;4.05;;
14167;SDS011;7163;50.626;12.922;2023-06-10T11:25:13;6.38;;;4.47;;
14167;SDS011;7163;50.626;12.922;2023-06-10T11:30:17;4.88;;;3.90;;
14167;SDS011;7163;50.626;12.922;2023-06-10T11:35:24;6.63;;;4.50;;
14167;SDS011;7163;50.626;12.922;2023-06-10T11:40:25;10.02;;;5.53;;
14167;SDS011;7163;50.626;12.922;2023-06-10T11:45:29;8.35;;;5.38;;
14167;SDS011;7163;50.626;12.922;2023-06-10T11:50:32;10.43;;;5.40;;
14167;SDS011;7163;50.626;12.922;2023-06-10T12:00:43;8.82;;;5.25;;
14167;SDS011;7163;50.626;12.922;2023-06-10T12:06:08;8.55;;;5.53;;
14167;SDS011;7163;50.626;12.922;2023-06-10T12:11:09;10.88;;;4.95;;
14167;SDS011;7163;50.626;12.922;2023-06-10T12:16:10;7.63;;;4.90;;
14167;SDS011;7163;50.626;12.922;2023-06-10T12:21:22;8.70;;;5.20;;
14167;SDS011;7163;50.626;12.922;2023-06-10T12:26:33;7.03;;;4.57;;
14167;SDS011;7163;50.626;12.922;2023-06-10T12:31:51;5.63;;;4.32;;
14167;SDS011;7163;50.626;12.922;2023-06-10T12:36:55;6.82;;;4.20;;
14167;SDS011;7163;50.626;12.922;2023-06-10T12:41:56;7.65;;;4.30;;
14167;SDS011;7163;50.626;12.922;2023-06-10T12:46:57;7.25;;;4.70;;
14167;SDS011;7163;50.626;12.922;2023-06-10T12:51:57;6.67;;;4.23;;
14167;SDS011;7163;50.626;12.922;2023-06-10T12:56:58;6.60;;;4.10;;
14167;SDS011;7163;50.626;12.922;2023-06-10T13:01:58;5.53;;;4.85;;
14167;SDS011;7163;50.626;12.922;2023-06-10T13:06:59;8.38;;;4.32;;
14167;SDS011;7163;50.626;12.922;2023-06-10T13:11:59;8.90;;;4.53;;
14167;SDS011;7163;50.626;12.922;2023-06-10T13:17:00;6.10;;;3.70;;
14167;SDS011;7163;50.626;12.922;2023-06-10T13:22:00;8.27;;;3.83;;
14167;SDS011;7163;50.626;12.922;2023-06-10T13:27:01;5.38;;;4.35;;
14167;SDS011;7163;50.626;12.922;2023-06-10T13:32:02;5.22;;;4.40;;
14167;SDS011;7163;50.626;12.922;2023-06-10T13:37:05;4.50;;;4.00;;
14167;SDS011;7163;50.626;12.922;2023-06-10T13:42:09;7.65;;;4.43;;
14167;SDS011;7163;50.626;12.922;2023-06-10T13:47:10;7.28;;;4.45;;
14167;SDS011;7163;50.626;12.922;2023-06-10T13:52:10;6.13;;;4.05;;
14167;SDS011;7163;50.626;12.922;2023-06-10T13:57:11;7.18;;;4.03;;
14167;SDS011;7163;50.626;12.922;2023-06-10T14:02:12;7.07;;;4.05;;
14167;SDS011;7163;50.626;12.922;2023-06-10T14:07:12;6.67;;;4.33;;
14167;SDS011;7163;50.626;12.922;2023-06-10T14:12:13;5.95;;;4.05;;
14167;SDS011;7163;50.626;12.922;2023-06-10T14:17:13;4.85;;;4.03;;
14167;SDS011;7163;50.626;12.922;2023-06-10T14:22:14;7.23;;;4.37;;
14167;SDS011;7163;50.626;12.922;2023-06-10T14:27:15;7.25;;;4.43;;
14167;SDS011;7163;50.626;12.922;2023-06-10T14:32:18;7.70;;;4.03;;
14167;SDS011;7163;50.626;12.922;2023-06-10T14:37:18;7.82;;;4.63;;
14167;SDS011;7163;50.626;12.922;2023-06-10T14:42:19;6.63;;;4.40;;
14167;SDS011;7163;50.626;12.922;2023-06-10T14:47:19;8.82;;;4.60;;
14167;SDS011;7163;50.626;12.922;2023-06-10T14:52:20;6.25;;;4.68;;
14167;SDS011;7163;50.626;12.922;2023-06-10T14:57:20;9.37;;;4.27;;
14167;SDS011;7163;50.626;12.922;2023-06-10T15:02:22;6.13;;;4.20;;
14167;SDS011;7163;50.626;12.922;2023-06-10T15:07:22;8.40;;;4.10;;
14167;SDS011;7163;50.626;12.922;2023-06-10T15:12:23;5.60;;;4.53;;
14167;SDS011;7163;50.626;12.922;2023-06-10T15:17:28;8.90;;;4.20;;
14167;SDS011;7163;50.626;12.922;2023-06-10T15:34:29;7.30;;;4.28;;
14167;SDS011;7163;50.626;12.922;2023-06-10T15:39:57;8.40;;;4.40;;
14167;SDS011;7163;50.626;12.922;2023-06-10T15:50:25;7.07;;;4.50;;
14167;SDS011;7163;50.626;12.922;2023-06-10T15:55:29;7.22;;;5.20;;
14167;SDS011;7163;50.626;12.922;2023-06-10T16:00:32;9.38;;;4.85;;
14167;SDS011;7163;50.626;12.922;2023-06-10T16:10:55;8.35;;;4.90;;
14167;SDS011;7163;50.626;12.922;2023-06-10T16:15:56;13.50;;;5.70;;
14167;SDS011;7163;50.626;12.922;2023-06-10T16:21:08;9.57;;;5.30;;
14167;SDS011;7163;50.626;12.922;2023-06-10T16:26:12;8.70;;;5.10;;
14167;SDS011;7163;50.626;12.922;2023-06-10T16:31:21;7.68;;;5.30;;
14167;SDS011;7163;50.626;12.922;2023-06-10T16:36:21;8.60;;;5.10;;
14167;SDS011;7163;50.626;12.922;2023-06-10T16:41:43;10.07;;;6.00;;
14167;SDS011;7163;50.626;12.922;2023-06-10T16:46:51;11.57;;;7.68;;
14167;SDS011;7163;50.626;12.922;2023-06-10T16:52:02;8.70;;;5.57;;
14167;SDS011;7163;50.626;12.922;2023-06-10T16:57:05;10.05;;;5.90;;
14167;SDS011;7163;50.626;12.922;2023-06-10T17:02:07;13.18;;;7.57;;
14167;SDS011;7163;50.626;12.922;2023-06-10T17:07:15;8.60;;;5.97;;
14167;SDS011;7163;50.626;12.922;2023-06-10T17:12:21;15.05;;;5.82;;
14167;SDS011;7163;50.626;12.922;2023-06-10T17:17:25;8.27;;;4.90;;
14167;SDS011;7163;50.626;12.922;2023-06-10T17:22:28;8.05;;;5.32;;
14167;SDS011;7163;50.626;12.922;2023-06-10T17:27:49;7.90;;;5.75;;
14167;SDS011;7163;50.626;12.922;2023-06-10T17:32:58;12.98;;;8.45;;
14167;SDS011;7163;50.626;12.922;2023-06-10T17:38:01;8.57;;;5.65;;
14167;SDS011;7163;50.626;12.922;2023-06-10T17:43:05;9.90;;;5.45;;
14167;SDS011;7163;50.626;12.922;2023-06-10T17:48:06;8.32;;;4.95;;
14167;SDS011;7163;50.626;12.922;2023-06-10T17:53:15;9.65;;;5.70;;
14167;SDS011;7163;50.626;12.922;2023-06-10T17:58:19;9.10;;;5.32;;
14167;SDS011;7163;50.626;12.922;2023-06-10T18:03:28;8.00;;;5.47;;
14167;SDS011;7163;50.626;12.922;2023-06-10T18:08:37;7.68;;;5.97;;
14167;SDS011;7163;50.626;12.922;2023-06-10T18:13:40;11.27;;;5.93;;
14167;SDS011;7163;50.626;12.922;2023-06-10T18:18:44;10.20;;;6.90;;
14167;SDS011;7163;50.626;12.922;2023-06-10T18:23:46;11.23;;;7.90;;
14167;SDS011;7163;50.626;12.922;2023-06-10T18:28:49;13.65;;;8.73;;
14167;SDS011;7163;50.626;12.922;2023-06-10T18:33:50;11.90;;;8.13;;
14167;SDS011;7163;50.626;12.922;2023-06-10T18:38:51;11.63;;;7.10;;
14167;SDS011;7163;50.626;12.922;2023-06-10T18:43:52;10.80;;;7.75;;
14167;SDS011;7163;50.626;12.922;2023-06-10T18:48:55;12.02;;;7.88;;
14167;SDS011;7163;50.626;12.922;2023-06-10T18:53:59;11.32;;;7.90;;
14167;SDS011;7163;50.626;12.922;2023-06-10T18:58:59;11.30;;;8.40;;
14167;SDS011;7163;50.626;12.922;2023-06-10T19:04:00;14.90;;;9.57;;
14167;SDS011;7163;50.626;12.922;2023-06-10T19:09:01;16.87;;;11.60;;
14167;SDS011;7163;50.626;12.922;2023-06-10T19:14:02;14.37;;;10.00;;
14167;SDS011;7163;50.626;12.922;2023-06-10T19:19:04;15.13;;;10.73;;
14167;SDS011;7163;50.626;12.922;2023-06-10T19:24:14;12.37;;;9.00;;
14167;SDS011;7163;50.626;12.922;2023-06-10T19:29:23;10.67;;;7.87;;
14167;SDS011;7163;50.626;12.922;2023-06-10T19:34:23;14.97;;;11.10;;
14167;SDS011;7163;50.626;12.922;2023-06-10T19:39:27;14.00;;;9.30;;
14167;SDS011;7163;50.626;12.922;2023-06-10T19:44:28;11.00;;;8.77;;
14167;SDS011;7163;50.626;12.922;2023-06-10T19:49:31;16.57;;;12.10;;
14167;SDS011;7163;50.626;12.922;2023-06-10T19:54:32;21.27;;;13.23;;
14167;SDS011;7163;50.626;12.922;2023-06-10T19:59:33;20.93;;;13.23;;
14167;SDS011;7163;50.626;12.922;2023-06-10T20:04:36;16.83;;;10.90;;
14167;SDS011;7163;50.626;12.922;2023-06-10T20:09:39;14.20;;;10.83;;
14167;SDS011;7163;50.626;12.922;2023-06-10T20:14:40;13.73;;;10.17;;
14167;SDS011;7163;50.626;12.922;2023-06-10T20:19:41;13.70;;;9.77;;
14167;SDS011;7163;50.626;12.922;2023-06-10T20:24:42;13.10;;;9.37;;
14167;SDS011;7163;50.626;12.922;2023-06-10T20:29:42;14.57;;;9.93;;
14167;SDS011;7163;50.626;12.922;2023-06-10T20:34:42;15.57;;;10.60;;
14167;SDS011;7163;50.626;12.922;2023-06-10T20:39:43;15.27;;;10.80;;
14167;SDS011;7163;50.626;12.922;2023-06-10T20:44:44;17.90;;;9.97;;
14167;SDS011;7163;50.626;12.922;2023-06-10T20:49:44;14.63;;;9.57;;
14167;SDS011;7163;50.626;12.922;2023-06-10T20:54:45;13.30;;;9.57;;
14167;SDS011;7163;50.626;12.922;2023-06-10T20:59:46;12.97;;;9.73;;
14167;SDS011;7163;50.626;12.922;2023-06-10T21:04:46;14.00;;;11.07;;
14167;SDS011;7163;50.626;12.922;2023-06-10T21:09:47;15.40;;;10.70;;
14167;SDS011;7163;50.626;12.922;2023-06-10T21:14:48;22.57;;;13.30;;
14167;SDS011;7163;50.626;12.922;2023-06-10T21:19:48;19.57;;;11.23;;
14167;SDS011;7163;50.626;12.922;2023-06-10T21:24:49;20.10;;;13.63;;
14167;SDS011;7163;50.626;12.922;2023-06-10T21:29:50;19.83;;;12.53;;
14167;SDS011;7163;50.626;12.922;2023-06-10T21:34:50;18.50;;;13.00;;
14167;SDS011;7163;50.626;12.922;2023-06-10T21:39:51;18.63;;;12.63;;
14167;SDS011;7163;50.626;12.922;2023-06-10T21:44:51;20.97;;;14.97;;
14167;SDS011;7163;50.626;12.922;2023-06-10T21:49:53;27.27;;;15.30;;
14167;SDS011;7163;50.626;12.922;2023-06-10T21:54:54;20.77;;;14.40;;
14167;SDS011;7163;50.626;12.922;2023-06-10T21:59:54;20.17;;;14.37;;
14167;SDS011;7163;50.626;12.922;2023-06-10T22:04:55;27.97;;;15.37;;
14167;SDS011;7163;50.626;12.922;2023-06-10T22:09:56;21.23;;;14.77;;
14167;SDS011;7163;50.626;12.922;2023-06-10T22:14:56;22.93;;;16.83;;
14167;SDS011;7163;50.626;12.922;2023-06-10T22:19:56;23.90;;;15.20;;
14167;SDS011;7163;50.626;12.922;2023-06-10T22:24:57;21.17;;;14.77;;
14167;SDS011;7163;50.626;12.922;2023-06-10T22:29:58;22.13;;;15.10;;
14167;SDS011;7163;50.626;12.922;2023-06-10T22:34:58;20.27;;;14.47;;
14167;SDS011;7163;50.626;12.922;2023-06-10T22:39:59;21.70;;;13.53;;
14167;SDS011;7163;50.626;12.922;2023-06-10T22:45:00;17.53;;;12.77;;
14167;SDS011;7163;50.626;12.922;2023-06-10T22:50:00;16.57;;;12.77;;
14167;SDS011;7163;50.626;12.922;2023-06-10T22:55:02;20.93;;;13.10;;
14167;SDS011;7163;50.626;12.922;2023-06-10T23:00:04;18.10;;;12.13;;
14167;SDS011;7163;50.626;12.922;2023-06-10T23:05:12;21.80;;;12.70;;
14167;SDS011;7163;50.626;12.922;2023-06-10T23:10:15;20.03;;;12.20;;
14167;SDS011;7163;50.626;12.922;2023-06-10T23:15:16;18.70;;;11.30;;
14167;SDS011;7163;50.626;12.922;2023-06-10T23:20:16;18.10;;;12.10;;
14167;SDS011;7163;50.626;12.922;2023-06-10T23:25:20;17.60;;;11.93;;
14167;SDS011;7163;50.626;12.922;2023-06-10T23:30:21;16.40;;;11.83;;
14167;SDS011;7163;50.626;12.922;2023-06-10T23:35:21;20.87;;;11.87;;
14167;SDS011;7163;50.626;12.922;2023-06-10T23:40:22;18.83;;;11.13;;
14167;SDS011;7163;50.626;12.922;2023-06-10T23:45:22;15.20;;;10.80;;
14167;SDS011;7163;50.626;12.922;2023-06-10T23:50:23;17.70;;;10.87;;
14167;SDS011;7163;50.626;12.922;2023-06-10T23:55:23;17.10;;;10.23;;
